Flight Track Log - Related Links

Times and Time Zones

All times are in EDT time to prevent confusion due to time zone crossing. See the N1732M flight status page for this flight to view local times or setup timezone preferences in your user account.

Time Position Orientation Groundspeed Altitude Reporting Facility
EDT Latitude Longitude Course Direction KTS MPH feet Rate Location/Type
Mon 11:14:56 AM 28.1000 -80.6500 270° West 79 91 400  Level Orlando TRACON
Mon 11:15:39 AM 28.1000 -80.6833 270° West 91 105 900 550 Climbing Orlando TRACON
Mon 11:16:45 AM 28.1000 -80.7167 270° West 101 116 1,400 389 Climbing Orlando TRACON
Mon 11:17:27 AM 28.1000 -80.7333 270° West 110 127 1,600 105 Climbing Orlando TRACON
Mon 11:18:39 AM 28.1167 -80.7833 291° West 118 136 1,600 136 Level Orlando TRACON
Mon 11:19:39 AM 28.1000 -80.8000 221° Southwest 92 106 1,900 200 Climbing Orlando TRACON
Mon 11:20:39 AM 28.0667 -80.8000 180° South 95 109 2,000 150 Climbing Orlando TRACON
Mon 11:21:39 AM 28.0333 -80.7833 156° South 97 112 2,200 100 Climbing Orlando TRACON
Mon 11:22:39 AM 28.0500 -80.7667 41° Northeast 124 143 2,200 -150 Level Orlando TRACON
Mon 11:23:39 AM 28.0667 -80.7333 60° Northeast 139 160 1,900 -333 Descending Orlando TRACON
Mon 11:24:45 AM 28.0667 -80.6833 90° East 125 144 1,500 -331 Descending Orlando TRACON
Mon 11:25:46 AM 28.0833 -80.6500 60° Northeast 102 117 1,200 -381 Descending Orlando TRACON
Mon 11:26:51 AM 28.1000 -80.6333 41° Northeast 105 121 700 -462 Descending Orlando TRACON
Mon 11:28:00 AM 28.1028 -80.6453 270° West  Level Estimated
Mon 11:35:00 AM 28.1028 -80.6453 270° West  Level Estimated
Mon 11:36:00 AM 28.1028 -80.6453 270° West  Level Estimated
Mon 11:37:00 AM 28.1028 -80.6453 270° West  Level Estimated
Mon 11:38:00 AM 28.1028 -80.6453 270° West  Level Estimated
Mon 11:39:00 AM 28.1028 -80.6453 270° West  Level Estimated
Mon 11:40:00 AM 28.1028 -80.6453 270° West  Level Estimated
Mon 11:41:00 AM 28.1028 -80.6453 270° West  Level Estimated
Mon 11:42:00 AM 28.1028 -80.6453 270° West  Level Estimated

Login

Don't have an account? Register now (free) for customized features, flight alerts, and more!